sensor_id;sensor_type;location;lat;lon;timestamp;P1;durP1;ratioP1;P2;durP2;ratioP2
51190;SDS011;37253;48.736;9.294;2022-08-05T00:01:16;3.67;;;2.28;;
51190;SDS011;37253;48.736;9.294;2022-08-05T00:03:19;2.63;;;2.22;;
51190;SDS011;37253;48.736;9.294;2022-08-05T00:05:19;2.78;;;2.13;;
51190;SDS011;37253;48.736;9.294;2022-08-05T00:07:20;4.75;;;2.35;;
51190;SDS011;37253;48.736;9.294;2022-08-05T00:09:20;3.40;;;2.35;;
51190;SDS011;37253;48.736;9.294;2022-08-05T00:11:20;3.53;;;2.72;;
51190;SDS011;37253;48.736;9.294;2022-08-05T00:13:21;2.35;;;2.10;;
51190;SDS011;37253;48.736;9.294;2022-08-05T00:15:21;4.85;;;2.22;;
51190;SDS011;37253;48.736;9.294;2022-08-05T00:17:21;2.67;;;2.40;;
51190;SDS011;37253;48.736;9.294;2022-08-05T00:19:22;2.72;;;2.25;;
51190;SDS011;37253;48.736;9.294;2022-08-05T00:21:22;4.70;;;2.85;;
51190;SDS011;37253;48.736;9.294;2022-08-05T00:23:22;2.72;;;2.38;;
51190;SDS011;37253;48.736;9.294;2022-08-05T00:25:23;2.25;;;2.05;;
51190;SDS011;37253;48.736;9.294;2022-08-05T00:27:23;2.25;;;2.05;;
51190;SDS011;37253;48.736;9.294;2022-08-05T00:29:24;3.80;;;2.15;;
51190;SDS011;37253;48.736;9.294;2022-08-05T00:31:24;2.63;;;2.28;;
51190;SDS011;37253;48.736;9.294;2022-08-05T00:33:25;2.78;;;2.58;;
51190;SDS011;37253;48.736;9.294;2022-08-05T00:35:25;2.08;;;1.98;;
51190;SDS011;37253;48.736;9.294;2022-08-05T00:37:26;4.90;;;2.35;;
51190;SDS011;37253;48.736;9.294;2022-08-05T00:39:26;4.68;;;2.33;;
51190;SDS011;37253;48.736;9.294;2022-08-05T00:41:27;2.50;;;2.30;;
51190;SDS011;37253;48.736;9.294;2022-08-05T00:43:29;4.75;;;2.70;;
51190;SDS011;37253;48.736;9.294;2022-08-05T00:45:30;3.53;;;2.63;;
51190;SDS011;37253;48.736;9.294;2022-08-05T00:47:30;2.75;;;2.40;;
51190;SDS011;37253;48.736;9.294;2022-08-05T00:49:31;2.90;;;2.45;;
51190;SDS011;37253;48.736;9.294;2022-08-05T00:51:31;2.92;;;2.42;;
51190;SDS011;37253;48.736;9.294;2022-08-05T00:53:32;3.58;;;2.53;;
51190;SDS011;37253;48.736;9.294;2022-08-05T00:55:32;5.30;;;2.45;;
51190;SDS011;37253;48.736;9.294;2022-08-05T00:57:32;3.05;;;2.10;;
51190;SDS011;37253;48.736;9.294;2022-08-05T00:59:33;4.03;;;2.70;;
51190;SDS011;37253;48.736;9.294;2022-08-05T01:01:33;2.45;;;2.17;;
51190;SDS011;37253;48.736;9.294;2022-08-05T01:03:33;2.88;;;2.58;;
51190;SDS011;37253;48.736;9.294;2022-08-05T01:05:34;2.97;;;2.40;;
51190;SDS011;37253;48.736;9.294;2022-08-05T01:07:34;5.45;;;2.33;;
51190;SDS011;37253;48.736;9.294;2022-08-05T01:09:34;5.55;;;2.78;;
51190;SDS011;37253;48.736;9.294;2022-08-05T01:11:35;5.65;;;2.38;;
51190;SDS011;37253;48.736;9.294;2022-08-05T01:15:58;3.25;;;2.63;;
51190;SDS011;37253;48.736;9.294;2022-08-05T01:18:00;2.88;;;2.30;;
51190;SDS011;37253;48.736;9.294;2022-08-05T01:27:25;4.82;;;2.67;;
51190;SDS011;37253;48.736;9.294;2022-08-05T01:29:39;2.53;;;2.33;;
51190;SDS011;37253;48.736;9.294;2022-08-05T01:31:46;2.50;;;2.20;;
51190;SDS011;37253;48.736;9.294;2022-08-05T01:33:53;2.28;;;2.05;;
51190;SDS011;37253;48.736;9.294;2022-08-05T01:36:00;2.58;;;2.38;;
51190;SDS011;37253;48.736;9.294;2022-08-05T01:38:03;4.00;;;2.47;;
51190;SDS011;37253;48.736;9.294;2022-08-05T01:40:05;5.40;;;2.83;;
51190;SDS011;37253;48.736;9.294;2022-08-05T01:42:07;3.88;;;2.08;;
51190;SDS011;37253;48.736;9.294;2022-08-05T01:44:10;2.70;;;2.38;;
51190;SDS011;37253;48.736;9.294;2022-08-05T01:46:11;4.13;;;2.58;;
51190;SDS011;37253;48.736;9.294;2022-08-05T01:48:11;5.47;;;2.40;;
51190;SDS011;37253;48.736;9.294;2022-08-05T01:50:16;4.13;;;2.67;;
51190;SDS011;37253;48.736;9.294;2022-08-05T01:52:19;3.13;;;2.83;;
51190;SDS011;37253;48.736;9.294;2022-08-05T01:54:20;3.50;;;2.30;;
51190;SDS011;37253;48.736;9.294;2022-08-05T01:56:21;5.22;;;2.50;;
51190;SDS011;37253;48.736;9.294;2022-08-05T01:58:23;3.90;;;2.33;;
51190;SDS011;37253;48.736;9.294;2022-08-05T02:00:25;3.38;;;2.40;;
51190;SDS011;37253;48.736;9.294;2022-08-05T02:02:27;3.20;;;2.38;;
51190;SDS011;37253;48.736;9.294;2022-08-05T02:04:28;6.00;;;2.43;;
51190;SDS011;37253;48.736;9.294;2022-08-05T02:06:32;3.10;;;2.67;;
51190;SDS011;37253;48.736;9.294;2022-08-05T02:08:32;2.92;;;2.60;;
51190;SDS011;37253;48.736;9.294;2022-08-05T02:10:34;4.72;;;2.63;;
51190;SDS011;37253;48.736;9.294;2022-08-05T02:14:48;4.25;;;2.80;;
51190;SDS011;37253;48.736;9.294;2022-08-05T02:16:52;2.47;;;2.28;;
51190;SDS011;37253;48.736;9.294;2022-08-05T02:18:58;3.25;;;2.63;;
51190;SDS011;37253;48.736;9.294;2022-08-05T02:21:04;9.40;;;2.67;;
51190;SDS011;37253;48.736;9.294;2022-08-05T02:23:08;2.30;;;2.13;;
51190;SDS011;37253;48.736;9.294;2022-08-05T02:25:17;4.38;;;2.47;;
51190;SDS011;37253;48.736;9.294;2022-08-05T02:27:19;3.05;;;1.98;;
51190;SDS011;37253;48.736;9.294;2022-08-05T02:29:21;4.60;;;2.55;;
51190;SDS011;37253;48.736;9.294;2022-08-05T02:31:26;4.50;;;2.30;;
51190;SDS011;37253;48.736;9.294;2022-08-05T02:33:27;4.63;;;2.03;;
51190;SDS011;37253;48.736;9.294;2022-08-05T02:35:29;7.30;;;2.38;;
51190;SDS011;37253;48.736;9.294;2022-08-05T02:37:31;4.83;;;2.17;;
51190;SDS011;37253;48.736;9.294;2022-08-05T02:39:34;3.30;;;2.22;;
51190;SDS011;37253;48.736;9.294;2022-08-05T02:41:35;3.40;;;2.22;;
51190;SDS011;37253;48.736;9.294;2022-08-05T02:43:36;5.30;;;2.05;;
51190;SDS011;37253;48.736;9.294;2022-08-05T02:45:39;4.93;;;2.25;;
51190;SDS011;37253;48.736;9.294;2022-08-05T02:47:39;5.72;;;2.00;;
51190;SDS011;37253;48.736;9.294;2022-08-05T02:49:40;3.65;;;2.10;;
51190;SDS011;37253;48.736;9.294;2022-08-05T02:51:41;3.85;;;1.85;;
51190;SDS011;37253;48.736;9.294;2022-08-05T02:53:42;6.93;;;2.38;;
51190;SDS011;37253;48.736;9.294;2022-08-05T02:55:42;4.82;;;1.70;;
51190;SDS011;37253;48.736;9.294;2022-08-05T02:57:42;5.57;;;2.33;;
51190;SDS011;37253;48.736;9.294;2022-08-05T02:59:44;5.93;;;1.85;;
51190;SDS011;37253;48.736;9.294;2022-08-05T03:01:46;4.80;;;2.00;;
51190;SDS011;37253;48.736;9.294;2022-08-05T03:03:55;3.63;;;1.98;;
51190;SDS011;37253;48.736;9.294;2022-08-05T03:05:58;7.07;;;2.10;;
51190;SDS011;37253;48.736;9.294;2022-08-05T03:07:58;5.32;;;2.22;;
51190;SDS011;37253;48.736;9.294;2022-08-05T03:09:59;9.60;;;2.22;;
51190;SDS011;37253;48.736;9.294;2022-08-05T03:11:59;4.25;;;1.45;;
51190;SDS011;37253;48.736;9.294;2022-08-05T03:14:00;6.72;;;2.10;;
51190;SDS011;37253;48.736;9.294;2022-08-05T03:16:00;7.22;;;1.90;;
51190;SDS011;37253;48.736;9.294;2022-08-05T03:18:00;3.85;;;2.10;;
51190;SDS011;37253;48.736;9.294;2022-08-05T03:20:01;10.02;;;1.95;;
51190;SDS011;37253;48.736;9.294;2022-08-05T03:22:01;4.20;;;1.85;;
51190;SDS011;37253;48.736;9.294;2022-08-05T03:24:02;4.93;;;1.77;;
51190;SDS011;37253;48.736;9.294;2022-08-05T03:26:02;5.50;;;2.17;;
51190;SDS011;37253;48.736;9.294;2022-08-05T03:28:04;2.13;;;1.83;;
51190;SDS011;37253;48.736;9.294;2022-08-05T03:30:06;5.95;;;1.80;;
51190;SDS011;37253;48.736;9.294;2022-08-05T03:32:07;3.28;;;1.95;;
51190;SDS011;37253;48.736;9.294;2022-08-05T03:34:08;3.97;;;2.00;;
51190;SDS011;37253;48.736;9.294;2022-08-05T03:36:08;7.95;;;1.95;;
51190;SDS011;37253;48.736;9.294;2022-08-05T03:38:10;6.00;;;1.90;;
51190;SDS011;37253;48.736;9.294;2022-08-05T03:40:10;3.80;;;1.67;;
51190;SDS011;37253;48.736;9.294;2022-08-05T03:42:12;3.78;;;1.92;;
51190;SDS011;37253;48.736;9.294;2022-08-05T03:44:12;7.30;;;1.83;;
51190;SDS011;37253;48.736;9.294;2022-08-05T03:46:12;4.22;;;1.83;;
51190;SDS011;37253;48.736;9.294;2022-08-05T03:48:12;6.60;;;1.83;;
51190;SDS011;37253;48.736;9.294;2022-08-05T03:50:13;14.63;;;2.10;;
51190;SDS011;37253;48.736;9.294;2022-08-05T03:52:17;4.38;;;1.80;;
51190;SDS011;37253;48.736;9.294;2022-08-05T03:56:39;3.85;;;1.60;;
51190;SDS011;37253;48.736;9.294;2022-08-05T03:58:41;4.20;;;2.13;;
51190;SDS011;37253;48.736;9.294;2022-08-05T04:00:43;2.75;;;1.75;;
51190;SDS011;37253;48.736;9.294;2022-08-05T04:02:47;5.05;;;1.92;;
51190;SDS011;37253;48.736;9.294;2022-08-05T04:04:49;5.03;;;1.80;;
51190;SDS011;37253;48.736;9.294;2022-08-05T04:06:49;7.20;;;1.90;;
51190;SDS011;37253;48.736;9.294;2022-08-05T04:08:50;6.30;;;1.90;;
51190;SDS011;37253;48.736;9.294;2022-08-05T04:10:51;4.15;;;1.80;;
51190;SDS011;37253;48.736;9.294;2022-08-05T04:12:51;2.55;;;1.58;;
51190;SDS011;37253;48.736;9.294;2022-08-05T04:14:52;6.93;;;2.03;;
51190;SDS011;37253;48.736;9.294;2022-08-05T04:16:53;3.15;;;1.85;;
51190;SDS011;37253;48.736;9.294;2022-08-05T04:18:53;5.63;;;1.92;;
51190;SDS011;37253;48.736;9.294;2022-08-05T04:20:54;5.78;;;2.00;;
51190;SDS011;37253;48.736;9.294;2022-08-05T04:22:55;5.07;;;2.10;;
51190;SDS011;37253;48.736;9.294;2022-08-05T04:24:56;4.57;;;1.85;;
51190;SDS011;37253;48.736;9.294;2022-08-05T04:26:56;5.50;;;1.83;;
51190;SDS011;37253;48.736;9.294;2022-08-05T04:28:56;5.65;;;2.08;;
51190;SDS011;37253;48.736;9.294;2022-08-05T04:30:57;5.65;;;2.00;;
51190;SDS011;37253;48.736;9.294;2022-08-05T04:32:58;4.38;;;1.90;;
51190;SDS011;37253;48.736;9.294;2022-08-05T04:34:58;4.03;;;2.00;;
51190;SDS011;37253;48.736;9.294;2022-08-05T04:36:59;3.33;;;1.90;;
51190;SDS011;37253;48.736;9.294;2022-08-05T04:38:59;5.05;;;2.22;;
51190;SDS011;37253;48.736;9.294;2022-08-05T04:40:59;7.90;;;1.70;;
51190;SDS011;37253;48.736;9.294;2022-08-05T04:43:00;4.18;;;1.90;;
51190;SDS011;37253;48.736;9.294;2022-08-05T04:45:00;4.63;;;1.92;;
51190;SDS011;37253;48.736;9.294;2022-08-05T04:47:00;4.43;;;2.00;;
51190;SDS011;37253;48.736;9.294;2022-08-05T04:49:01;9.05;;;2.30;;
51190;SDS011;37253;48.736;9.294;2022-08-05T04:51:01;4.72;;;2.10;;
51190;SDS011;37253;48.736;9.294;2022-08-05T04:53:02;4.03;;;2.10;;
51190;SDS011;37253;48.736;9.294;2022-08-05T04:55:02;8.93;;;2.03;;
51190;SDS011;37253;48.736;9.294;2022-08-05T04:57:02;7.35;;;2.00;;
51190;SDS011;37253;48.736;9.294;2022-08-05T04:59:03;8.02;;;2.28;;
51190;SDS011;37253;48.736;9.294;2022-08-05T05:01:03;6.07;;;1.92;;
51190;SDS011;37253;48.736;9.294;2022-08-05T05:03:04;4.53;;;2.30;;
51190;SDS011;37253;48.736;9.294;2022-08-05T05:05:05;9.18;;;2.25;;
51190;SDS011;37253;48.736;9.294;2022-08-05T05:07:06;11.57;;;2.22;;
51190;SDS011;37253;48.736;9.294;2022-08-05T05:09:06;4.10;;;2.00;;
51190;SDS011;37253;48.736;9.294;2022-08-05T05:11:06;6.13;;;2.15;;
51190;SDS011;37253;48.736;9.294;2022-08-05T05:13:11;4.50;;;2.20;;
51190;SDS011;37253;48.736;9.294;2022-08-05T05:15:12;5.50;;;2.40;;
51190;SDS011;37253;48.736;9.294;2022-08-05T05:17:13;4.40;;;1.88;;
51190;SDS011;37253;48.736;9.294;2022-08-05T05:19:13;8.80;;;2.28;;
51190;SDS011;37253;48.736;9.294;2022-08-05T05:21:13;6.38;;;2.60;;
51190;SDS011;37253;48.736;9.294;2022-08-05T05:23:14;3.35;;;2.00;;
51190;SDS011;37253;48.736;9.294;2022-08-05T05:25:15;8.35;;;2.10;;
51190;SDS011;37253;48.736;9.294;2022-08-05T05:27:15;10.27;;;1.92;;
51190;SDS011;37253;48.736;9.294;2022-08-05T05:29:15;4.93;;;2.08;;
51190;SDS011;37253;48.736;9.294;2022-08-05T05:31:15;9.88;;;2.20;;
51190;SDS011;37253;48.736;9.294;2022-08-05T05:33:16;6.80;;;2.10;;
51190;SDS011;37253;48.736;9.294;2022-08-05T05:35:16;3.03;;;2.20;;
51190;SDS011;37253;48.736;9.294;2022-08-05T05:37:17;7.40;;;2.20;;
51190;SDS011;37253;48.736;9.294;2022-08-05T05:39:17;4.75;;;1.90;;
51190;SDS011;37253;48.736;9.294;2022-08-05T05:41:17;7.65;;;2.15;;
51190;SDS011;37253;48.736;9.294;2022-08-05T05:43:18;5.22;;;2.47;;
51190;SDS011;37253;48.736;9.294;2022-08-05T05:45:19;4.03;;;2.17;;
51190;SDS011;37253;48.736;9.294;2022-08-05T05:47:19;6.10;;;2.13;;
51190;SDS011;37253;48.736;9.294;2022-08-05T05:49:20;6.82;;;2.55;;
51190;SDS011;37253;48.736;9.294;2022-08-05T05:51:21;15.30;;;2.55;;
51190;SDS011;37253;48.736;9.294;2022-08-05T05:53:22;7.15;;;2.10;;
51190;SDS011;37253;48.736;9.294;2022-08-05T05:55:22;11.57;;;2.70;;
51190;SDS011;37253;48.736;9.294;2022-08-05T05:57:22;11.43;;;2.50;;
51190;SDS011;37253;48.736;9.294;2022-08-05T05:59:23;12.30;;;2.63;;
51190;SDS011;37253;48.736;9.294;2022-08-05T06:01:23;11.77;;;2.30;;
51190;SDS011;37253;48.736;9.294;2022-08-05T06:03:23;13.20;;;2.67;;
51190;SDS011;37253;48.736;9.294;2022-08-05T06:05:24;12.52;;;3.05;;
51190;SDS011;37253;48.736;9.294;2022-08-05T06:07:24;8.45;;;2.92;;
51190;SDS011;37253;48.736;9.294;2022-08-05T06:09:24;9.35;;;2.92;;
51190;SDS011;37253;48.736;9.294;2022-08-05T06:11:25;9.25;;;2.63;;
51190;SDS011;37253;48.736;9.294;2022-08-05T06:13:25;15.02;;;3.20;;
51190;SDS011;37253;48.736;9.294;2022-08-05T06:15:25;5.53;;;2.67;;
51190;SDS011;37253;48.736;9.294;2022-08-05T06:17:26;4.72;;;2.45;;
51190;SDS011;37253;48.736;9.294;2022-08-05T06:19:26;12.63;;;2.90;;
51190;SDS011;37253;48.736;9.294;2022-08-05T06:21:26;8.52;;;2.30;;
51190;SDS011;37253;48.736;9.294;2022-08-05T06:23:27;15.95;;;3.33;;
51190;SDS011;37253;48.736;9.294;2022-08-05T06:25:28;13.00;;;3.45;;
51190;SDS011;37253;48.736;9.294;2022-08-05T06:27:28;10.15;;;3.10;;
51190;SDS011;37253;48.736;9.294;2022-08-05T06:29:28;4.13;;;2.70;;
51190;SDS011;37253;48.736;9.294;2022-08-05T06:31:29;8.75;;;2.60;;
51190;SDS011;37253;48.736;9.294;2022-08-05T06:33:29;10.27;;;2.70;;
51190;SDS011;37253;48.736;9.294;2022-08-05T06:35:30;6.57;;;2.63;;
51190;SDS011;37253;48.736;9.294;2022-08-05T06:37:30;8.48;;;2.83;;
51190;SDS011;37253;48.736;9.294;2022-08-05T06:39:30;9.52;;;2.90;;
51190;SDS011;37253;48.736;9.294;2022-08-05T06:41:31;8.75;;;2.42;;
51190;SDS011;37253;48.736;9.294;2022-08-05T06:43:31;9.35;;;2.80;;
51190;SDS011;37253;48.736;9.294;2022-08-05T06:45:31;9.35;;;2.90;;
51190;SDS011;37253;48.736;9.294;2022-08-05T06:47:32;11.05;;;2.70;;
51190;SDS011;37253;48.736;9.294;2022-08-05T06:49:32;21.95;;;3.75;;
51190;SDS011;37253;48.736;9.294;2022-08-05T06:51:32;23.23;;;3.17;;
51190;SDS011;37253;48.736;9.294;2022-08-05T06:53:33;11.90;;;3.08;;
51190;SDS011;37253;48.736;9.294;2022-08-05T06:55:34;12.25;;;2.80;;
51190;SDS011;37253;48.736;9.294;2022-08-05T06:57:35;19.02;;;3.97;;
51190;SDS011;37253;48.736;9.294;2022-08-05T06:59:35;11.20;;;3.83;;
51190;SDS011;37253;48.736;9.294;2022-08-05T07:01:35;8.68;;;2.90;;
51190;SDS011;37253;48.736;9.294;2022-08-05T07:03:36;16.58;;;3.38;;
51190;SDS011;37253;48.736;9.294;2022-08-05T07:05:36;11.57;;;3.95;;
51190;SDS011;37253;48.736;9.294;2022-08-05T07:07:37;10.10;;;4.07;;
51190;SDS011;37253;48.736;9.294;2022-08-05T07:09:38;9.32;;;3.10;;
51190;SDS011;37253;48.736;9.294;2022-08-05T07:11:38;7.00;;;3.30;;
51190;SDS011;37253;48.736;9.294;2022-08-05T07:13:38;8.75;;;3.15;;
51190;SDS011;37253;48.736;9.294;2022-08-05T07:15:57;10.00;;;3.28;;
51190;SDS011;37253;48.736;9.294;2022-08-05T07:18:16;6.13;;;2.95;;
51190;SDS011;37253;48.736;9.294;2022-08-05T07:20:17;11.82;;;3.40;;
51190;SDS011;37253;48.736;9.294;2022-08-05T07:22:17;9.93;;;3.47;;
51190;SDS011;37253;48.736;9.294;2022-08-05T07:24:21;8.98;;;3.58;;
51190;SDS011;37253;48.736;9.294;2022-08-05T07:26:22;7.80;;;3.67;;
51190;SDS011;37253;48.736;9.294;2022-08-05T07:28:23;13.32;;;3.88;;
51190;SDS011;37253;48.736;9.294;2022-08-05T07:30:24;10.05;;;3.60;;
51190;SDS011;37253;48.736;9.294;2022-08-05T07:32:24;9.48;;;3.22;;
51190;SDS011;37253;48.736;9.294;2022-08-05T07:34:24;11.30;;;3.75;;
51190;SDS011;37253;48.736;9.294;2022-08-05T07:36:25;9.63;;;4.72;;
51190;SDS011;37253;48.736;9.294;2022-08-05T07:38:26;10.82;;;3.97;;
51190;SDS011;37253;48.736;9.294;2022-08-05T07:40:27;8.30;;;3.90;;
51190;SDS011;37253;48.736;9.294;2022-08-05T07:42:27;11.02;;;4.47;;
51190;SDS011;37253;48.736;9.294;2022-08-05T07:44:27;11.65;;;4.07;;
51190;SDS011;37253;48.736;9.294;2022-08-05T07:46:28;10.45;;;3.92;;
51190;SDS011;37253;48.736;9.294;2022-08-05T07:48:30;9.20;;;4.35;;
51190;SDS011;37253;48.736;9.294;2022-08-05T07:50:30;9.75;;;4.40;;
51190;SDS011;37253;48.736;9.294;2022-08-05T07:52:30;10.90;;;3.92;;
51190;SDS011;37253;48.736;9.294;2022-08-05T07:54:31;11.95;;;4.55;;
51190;SDS011;37253;48.736;9.294;2022-08-05T07:56:31;7.07;;;4.55;;
51190;SDS011;37253;48.736;9.294;2022-08-05T07:58:31;15.38;;;4.20;;
51190;SDS011;37253;48.736;9.294;2022-08-05T08:00:32;14.13;;;4.15;;
51190;SDS011;37253;48.736;9.294;2022-08-05T08:02:32;7.82;;;4.05;;
51190;SDS011;37253;48.736;9.294;2022-08-05T08:04:32;10.27;;;3.70;;
51190;SDS011;37253;48.736;9.294;2022-08-05T08:06:33;5.80;;;3.95;;
51190;SDS011;37253;48.736;9.294;2022-08-05T08:08:33;12.10;;;4.18;;
51190;SDS011;37253;48.736;9.294;2022-08-05T08:10:33;6.70;;;3.88;;
51190;SDS011;37253;48.736;9.294;2022-08-05T08:12:34;9.30;;;3.67;;
51190;SDS011;37253;48.736;9.294;2022-08-05T08:14:34;8.63;;;4.18;;
51190;SDS011;37253;48.736;9.294;2022-08-05T08:16:34;7.70;;;3.97;;
51190;SDS011;37253;48.736;9.294;2022-08-05T08:18:35;10.20;;;4.18;;
51190;SDS011;37253;48.736;9.294;2022-08-05T08:20:35;11.13;;;4.03;;
51190;SDS011;37253;48.736;9.294;2022-08-05T08:22:35;6.57;;;4.15;;
51190;SDS011;37253;48.736;9.294;2022-08-05T08:24:36;9.30;;;3.92;;
51190;SDS011;37253;48.736;9.294;2022-08-05T08:26:37;8.00;;;4.55;;
51190;SDS011;37253;48.736;9.294;2022-08-05T08:28:37;7.45;;;3.35;;
51190;SDS011;37253;48.736;9.294;2022-08-05T08:30:38;6.90;;;3.63;;
51190;SDS011;37253;48.736;9.294;2022-08-05T08:32:38;9.40;;;4.25;;
51190;SDS011;37253;48.736;9.294;2022-08-05T08:34:39;10.35;;;4.10;;
51190;SDS011;37253;48.736;9.294;2022-08-05T08:36:39;8.52;;;4.45;;
51190;SDS011;37253;48.736;9.294;2022-08-05T08:38:39;8.95;;;4.60;;
51190;SDS011;37253;48.736;9.294;2022-08-05T08:40:40;7.55;;;4.05;;
51190;SDS011;37253;48.736;9.294;2022-08-05T08:42:40;9.98;;;4.88;;
51190;SDS011;37253;48.736;9.294;2022-08-05T08:44:46;9.52;;;4.70;;
51190;SDS011;37253;48.736;9.294;2022-08-05T08:46:46;8.35;;;4.57;;
51190;SDS011;37253;48.736;9.294;2022-08-05T08:48:47;10.40;;;5.10;;
51190;SDS011;37253;48.736;9.294;2022-08-05T08:50:48;7.32;;;4.55;;
51190;SDS011;37253;48.736;9.294;2022-08-05T08:52:50;9.52;;;4.43;;
51190;SDS011;37253;48.736;9.294;2022-08-05T08:54:53;8.23;;;4.55;;
51190;SDS011;37253;48.736;9.294;2022-08-05T08:56:53;8.02;;;4.55;;
51190;SDS011;37253;48.736;9.294;2022-08-05T08:58:54;11.60;;;4.30;;
51190;SDS011;37253;48.736;9.294;2022-08-05T09:00:54;8.70;;;4.70;;
51190;SDS011;37253;48.736;9.294;2022-08-05T09:02:55;9.45;;;4.43;;
51190;SDS011;37253;48.736;9.294;2022-08-05T09:04:56;6.72;;;4.07;;
51190;SDS011;37253;48.736;9.294;2022-08-05T09:06:56;6.32;;;3.70;;
51190;SDS011;37253;48.736;9.294;2022-08-05T09:08:57;10.95;;;4.53;;
51190;SDS011;37253;48.736;9.294;2022-08-05T09:10:59;9.68;;;4.47;;
51190;SDS011;37253;48.736;9.294;2022-08-05T09:13:00;7.38;;;3.97;;
51190;SDS011;37253;48.736;9.294;2022-08-05T09:15:01;6.70;;;3.97;;
51190;SDS011;37253;48.736;9.294;2022-08-05T09:17:03;6.73;;;4.33;;
51190;SDS011;37253;48.736;9.294;2022-08-05T09:19:06;9.95;;;4.10;;
51190;SDS011;37253;48.736;9.294;2022-08-05T09:21:07;8.47;;;4.23;;
51190;SDS011;37253;48.736;9.294;2022-08-05T09:23:14;6.90;;;4.20;;
51190;SDS011;37253;48.736;9.294;2022-08-05T09:25:17;5.85;;;4.10;;
51190;SDS011;37253;48.736;9.294;2022-08-05T09:29:38;5.82;;;4.18;;
51190;SDS011;37253;48.736;9.294;2022-08-05T09:31:41;5.78;;;4.15;;
51190;SDS011;37253;48.736;9.294;2022-08-05T09:33:51;7.25;;;3.58;;
51190;SDS011;37253;48.736;9.294;2022-08-05T09:35:57;5.35;;;4.03;;
51190;SDS011;37253;48.736;9.294;2022-08-05T09:37:58;8.07;;;4.00;;
51190;SDS011;37253;48.736;9.294;2022-08-05T09:39:59;5.55;;;3.80;;
51190;SDS011;37253;48.736;9.294;2022-08-05T09:42:02;4.68;;;3.50;;
51190;SDS011;37253;48.736;9.294;2022-08-05T09:44:03;7.20;;;3.95;;
51190;SDS011;37253;48.736;9.294;2022-08-05T09:46:04;6.50;;;4.05;;
51190;SDS011;37253;48.736;9.294;2022-08-05T09:48:22;6.20;;;3.70;;
51190;SDS011;37253;48.736;9.294;2022-08-05T09:50:33;6.25;;;3.42;;
51190;SDS011;37253;48.736;9.294;2022-08-05T09:52:35;6.28;;;3.67;;
51190;SDS011;37253;48.736;9.294;2022-08-05T09:54:35;3.85;;;3.45;;
51190;SDS011;37253;48.736;9.294;2022-08-05T09:56:36;6.68;;;3.70;;
51190;SDS011;37253;48.736;9.294;2022-08-05T09:58:37;5.03;;;3.67;;
51190;SDS011;37253;48.736;9.294;2022-08-05T10:00:37;4.80;;;3.63;;
51190;SDS011;37253;48.736;9.294;2022-08-05T10:02:39;6.53;;;3.95;;
51190;SDS011;37253;48.736;9.294;2022-08-05T10:04:41;5.82;;;4.07;;
51190;SDS011;37253;48.736;9.294;2022-08-05T10:06:53;4.18;;;3.38;;
51190;SDS011;37253;48.736;9.294;2022-08-05T10:08:55;5.03;;;3.42;;
51190;SDS011;37253;48.736;9.294;2022-08-05T10:10:57;8.40;;;3.80;;
51190;SDS011;37253;48.736;9.294;2022-08-05T10:12:58;6.32;;;3.60;;
51190;SDS011;37253;48.736;9.294;2022-08-05T10:15:12;6.32;;;3.22;;
51190;SDS011;37253;48.736;9.294;2022-08-05T10:17:17;7.32;;;3.65;;
51190;SDS011;37253;48.736;9.294;2022-08-05T10:19:18;6.68;;;3.95;;
51190;SDS011;37253;48.736;9.294;2022-08-05T10:21:19;8.07;;;3.80;;
51190;SDS011;37253;48.736;9.294;2022-08-05T10:25:20;5.88;;;3.63;;
51190;SDS011;37253;48.736;9.294;2022-08-05T10:27:20;5.40;;;3.15;;
51190;SDS011;37253;48.736;9.294;2022-08-05T10:29:21;5.50;;;3.72;;
51190;SDS011;37253;48.736;9.294;2022-08-05T10:31:21;5.32;;;3.70;;
51190;SDS011;37253;48.736;9.294;2022-08-05T10:33:22;4.25;;;3.28;;
51190;SDS011;37253;48.736;9.294;2022-08-05T10:35:24;11.18;;;3.33;;
51190;SDS011;37253;48.736;9.294;2022-08-05T10:37:25;8.68;;;3.72;;
51190;SDS011;37253;48.736;9.294;2022-08-05T10:39:29;6.82;;;3.92;;
51190;SDS011;37253;48.736;9.294;2022-08-05T10:41:33;4.93;;;4.30;;
51190;SDS011;37253;48.736;9.294;2022-08-05T10:46:05;6.78;;;4.57;;
51190;SDS011;37253;48.736;9.294;2022-08-05T10:48:29;8.77;;;4.88;;
51190;SDS011;37253;48.736;9.294;2022-08-05T10:50:30;6.22;;;4.45;;
51190;SDS011;37253;48.736;9.294;2022-08-05T10:52:38;6.97;;;4.57;;
51190;SDS011;37253;48.736;9.294;2022-08-05T10:54:45;5.35;;;4.80;;
51190;SDS011;37253;48.736;9.294;2022-08-05T11:00:57;8.60;;;5.40;;
51190;SDS011;37253;48.736;9.294;2022-08-05T11:05:08;8.35;;;4.90;;
51190;SDS011;37253;48.736;9.294;2022-08-05T11:07:09;9.55;;;4.88;;
51190;SDS011;37253;48.736;9.294;2022-08-05T11:11:33;14.05;;;5.00;;
51190;SDS011;37253;48.736;9.294;2022-08-05T11:13:43;10.30;;;4.85;;
51190;SDS011;37253;48.736;9.294;2022-08-05T11:15:44;8.13;;;4.63;;
51190;SDS011;37253;48.736;9.294;2022-08-05T11:17:53;9.45;;;4.90;;
51190;SDS011;37253;48.736;9.294;2022-08-05T11:19:55;8.23;;;4.22;;
51190;SDS011;37253;48.736;9.294;2022-08-05T11:24:18;7.47;;;4.68;;
51190;SDS011;37253;48.736;9.294;2022-08-05T11:26:21;6.65;;;3.00;;
51190;SDS011;37253;48.736;9.294;2022-08-05T11:30:23;12.52;;;3.90;;
51190;SDS011;37253;48.736;9.294;2022-08-05T11:32:24;10.93;;;3.70;;
51190;SDS011;37253;48.736;9.294;2022-08-05T11:34:39;6.97;;;3.72;;
51190;SDS011;37253;48.736;9.294;2022-08-05T11:40:55;11.32;;;3.90;;
51190;SDS011;37253;48.736;9.294;2022-08-05T11:42:59;6.68;;;3.22;;
51190;SDS011;37253;48.736;9.294;2022-08-05T11:45:03;9.00;;;3.13;;
51190;SDS011;37253;48.736;9.294;2022-08-05T11:47:04;7.80;;;3.50;;
51190;SDS011;37253;48.736;9.294;2022-08-05T11:49:06;8.77;;;3.28;;
51190;SDS011;37253;48.736;9.294;2022-08-05T11:51:14;8.30;;;3.22;;
51190;SDS011;37253;48.736;9.294;2022-08-05T11:53:15;8.02;;;2.88;;
51190;SDS011;37253;48.736;9.294;2022-08-05T11:55:16;7.93;;;3.17;;
51190;SDS011;37253;48.736;9.294;2022-08-05T11:57:16;5.43;;;3.70;;
51190;SDS011;37253;48.736;9.294;2022-08-05T11:59:20;6.03;;;3.03;;
51190;SDS011;37253;48.736;9.294;2022-08-05T12:01:25;6.50;;;3.05;;
51190;SDS011;37253;48.736;9.294;2022-08-05T12:03:25;8.23;;;3.33;;
51190;SDS011;37253;48.736;9.294;2022-08-05T12:05:26;4.30;;;3.10;;
51190;SDS011;37253;48.736;9.294;2022-08-05T12:07:31;4.50;;;3.00;;
51190;SDS011;37253;48.736;9.294;2022-08-05T12:09:36;4.80;;;3.17;;
51190;SDS011;37253;48.736;9.294;2022-08-05T12:11:42;6.25;;;3.33;;
51190;SDS011;37253;48.736;9.294;2022-08-05T12:13:51;6.63;;;3.30;;
51190;SDS011;37253;48.736;9.294;2022-08-05T12:16:03;6.95;;;3.40;;
51190;SDS011;37253;48.736;9.294;2022-08-05T12:18:07;8.43;;;3.38;;
51190;SDS011;37253;48.736;9.294;2022-08-05T12:20:07;8.77;;;3.25;;
51190;SDS011;37253;48.736;9.294;2022-08-05T12:22:08;9.48;;;3.70;;
51190;SDS011;37253;48.736;9.294;2022-08-05T12:24:10;7.05;;;2.85;;
51190;SDS011;37253;48.736;9.294;2022-08-05T12:26:14;6.28;;;3.53;;
51190;SDS011;37253;48.736;9.294;2022-08-05T12:28:28;5.35;;;3.03;;
51190;SDS011;37253;48.736;9.294;2022-08-05T12:30:38;5.05;;;2.88;;
51190;SDS011;37253;48.736;9.294;2022-08-05T12:32:44;5.88;;;2.50;;
51190;SDS011;37253;48.736;9.294;2022-08-05T12:34:47;11.98;;;3.58;;
51190;SDS011;37253;48.736;9.294;2022-08-05T12:36:48;8.88;;;2.72;;
51190;SDS011;37253;48.736;9.294;2022-08-05T12:38:49;6.60;;;3.17;;
51190;SDS011;37253;48.736;9.294;2022-08-05T12:40:50;8.27;;;3.20;;
51190;SDS011;37253;48.736;9.294;2022-08-05T12:42:50;7.78;;;3.38;;
51190;SDS011;37253;48.736;9.294;2022-08-05T12:44:51;5.65;;;3.00;;
51190;SDS011;37253;48.736;9.294;2022-08-05T12:46:52;5.10;;;2.80;;
51190;SDS011;37253;48.736;9.294;2022-08-05T12:49:26;4.43;;;2.80;;
51190;SDS011;37253;48.736;9.294;2022-08-05T12:51:20;5.95;;;2.67;;